Terminal Aerodrome Forecast
Issued by NWS Tuscon, AZ

Home | Current Version | Previous Version | Text Only | Print | Product List | Glossary On
Versions: 1 2 3 4 5 6 7 8 9 10 11 12 13
000
FTUS45 KTWC 210100 AAA
TAFDUG
TAF AMD
KDUG 210123Z 2101/2124 11013KT P6SM FEW070 BKN100
     FM210300 05007KT P6SM FEW070 SCT100 BKN200
     FM211100 VRB03KT P6SM FEW100=

USA.gov is the U.S. government's official web portal to all federal, state and local government web resources and services.